createdAt,value
2019-05-06T00:01:07.300Z,5.07
2019-05-06T00:03:35.764Z,5.67
2019-05-06T00:06:04.312Z,5.40
2019-05-06T00:08:34.576Z,6.07
2019-05-06T00:11:04.762Z,5.90
2019-05-06T00:13:34.384Z,5.80
2019-05-06T00:16:03.935Z,5.50
2019-05-06T00:18:34.205Z,5.97
2019-05-06T00:21:04.627Z,5.57
2019-05-06T00:23:40.235Z,5.50
2019-05-06T00:26:26.605Z,5.63
2019-05-06T00:28:56.656Z,5.80
2019-05-06T00:31:25.223Z,5.43
2019-05-06T00:33:54.146Z,5.63
2019-05-06T00:36:23.720Z,5.20
2019-05-06T00:38:54.054Z,5.60
2019-05-06T00:41:24.813Z,5.60
2019-05-06T00:43:54.587Z,5.37
2019-05-06T00:46:24.304Z,5.57
2019-05-06T00:48:54.277Z,5.63
2019-05-06T00:51:24.196Z,5.33
2019-05-06T00:54:04.017Z,5.30
2019-05-06T00:56:34.024Z,5.60
2019-05-06T00:59:03.742Z,6.10
2019-05-06T01:01:34.291Z,5.87
2019-05-06T01:04:04.590Z,5.77
2019-05-06T01:06:34.500Z,5.90
2019-05-06T01:09:04.566Z,6.30
2019-05-06T01:11:34.578Z,6.00
2019-05-06T01:14:04.823Z,6.13
2019-05-06T01:16:34.522Z,5.90
2019-05-06T01:19:04.733Z,5.97
2019-05-06T01:21:34.213Z,6.00
2019-05-06T01:24:03.972Z,6.53
2019-05-06T01:26:33.714Z,6.93
2019-05-06T01:29:03.891Z,6.73
2019-05-06T01:31:42.150Z,6.60
2019-05-06T01:34:04.329Z,6.13
2019-05-06T01:36:34.398Z,6.97
2019-05-06T01:39:07.294Z,6.83
2019-05-06T01:41:37.339Z,6.83
2019-05-06T01:44:06.087Z,7.00
2019-05-06T01:46:34.485Z,7.27
2019-05-06T01:49:04.262Z,7.30
2019-05-06T01:51:34.758Z,7.27
2019-05-06T01:54:03.770Z,7.00
2019-05-06T01:56:33.663Z,7.57
2019-05-06T01:59:04.371Z,6.80
2019-05-06T02:01:34.201Z,7.07
2019-05-06T02:04:04.535Z,7.30
2019-05-06T02:06:34.323Z,6.57
2019-05-06T02:09:04.591Z,7.43
2019-05-06T02:11:33.760Z,7.90
2019-05-06T02:14:24.453Z,6.53
2019-05-06T02:16:54.367Z,7.17
2019-05-06T02:19:24.195Z,6.60
2019-05-06T02:21:54.577Z,6.90
2019-05-06T02:24:24.680Z,6.43
2019-05-06T02:26:54.282Z,6.97
2019-05-06T02:29:25.328Z,6.27
2019-05-06T02:32:17.069Z,6.53
2019-05-06T02:34:38.797Z,6.43
2019-05-06T02:37:17.530Z,6.33
2019-05-06T02:39:45.927Z,6.73
2019-05-06T02:42:14.357Z,6.53
2019-05-06T02:44:44.089Z,6.30
2019-05-06T02:47:30.390Z,6.33
2019-05-06T02:50:04.723Z,6.60
2019-05-06T02:52:33.246Z,6.17
2019-05-06T02:55:01.653Z,6.10
2019-05-06T02:57:33.240Z,6.43
2019-05-06T03:00:00.201Z,6.47
2019-05-06T03:02:39.849Z,5.97
2019-05-06T03:04:58.715Z,5.80
2019-05-06T03:07:27.129Z,6.63
2019-05-06T03:09:55.557Z,6.10
2019-05-06T03:12:23.954Z,5.53
2019-05-06T03:14:53.226Z,6.20
2019-05-06T03:17:23.481Z,5.77
2019-05-06T03:19:53.801Z,6.20
2019-05-06T03:22:27.697Z,5.80
2019-05-06T03:24:55.684Z,5.77
2019-05-06T03:27:24.131Z,6.00
2019-05-06T03:29:53.660Z,5.77
2019-05-06T03:32:29.836Z,5.87
2019-05-06T03:35:15.738Z,6.30
2019-05-06T03:37:23.844Z,6.53
2019-05-06T03:39:53.085Z,6.20
2019-05-06T03:42:22.979Z,5.93
2019-05-06T03:44:53.626Z,5.63
2019-05-06T03:47:35.510Z,5.87
2019-05-06T03:50:05.221Z,6.00
2019-05-06T03:52:34.339Z,6.20
2019-05-06T03:55:03.760Z,6.90
2019-05-06T03:57:33.464Z,6.17
2019-05-06T04:00:04.966Z,6.17
2019-05-06T04:02:33.968Z,5.50
2019-05-06T04:05:03.926Z,5.10
2019-05-06T04:07:34.153Z,5.30
2019-05-06T04:10:03.419Z,4.93
2019-05-06T04:12:34.113Z,5.40
2019-05-06T04:15:04.102Z,5.10
2019-05-06T04:17:37.404Z,5.20
2019-05-06T04:20:12.742Z,5.40
2019-05-06T04:22:48.445Z,4.90
2019-05-06T04:25:39.590Z,5.43
2019-05-06T04:28:12.701Z,5.30
2019-05-06T04:30:42.630Z,5.00
2019-05-06T04:33:14.072Z,5.03
2019-05-06T04:35:42.781Z,5.47
2019-05-06T04:38:13.630Z,5.73
2019-05-06T04:40:43.682Z,5.53
2019-05-06T04:43:13.416Z,5.20
2019-05-06T04:45:43.311Z,5.37
2019-05-06T04:48:14.302Z,6.10
2019-05-06T04:50:44.382Z,6.07
2019-05-06T04:53:13.677Z,5.50
2019-05-06T04:55:43.687Z,5.70
2019-05-06T04:58:13.549Z,5.50
2019-05-06T05:00:44.510Z,5.30
2019-05-06T05:03:13.926Z,5.63
2019-05-06T05:05:44.781Z,5.40
2019-05-06T05:08:13.460Z,5.50
2019-05-06T05:10:56.084Z,5.53
2019-05-06T05:13:32.946Z,5.60
2019-05-06T05:16:12.825Z,5.23
2019-05-06T05:18:42.999Z,5.80
2019-05-06T05:21:11.939Z,6.57
2019-05-06T05:23:42.624Z,6.33
2019-05-06T05:26:12.059Z,6.60
2019-05-06T05:28:42.801Z,6.30
2019-05-06T05:31:12.315Z,6.40
2019-05-06T05:33:42.307Z,6.43
2019-05-06T05:36:12.434Z,6.33
2019-05-06T05:38:42.826Z,6.93
2019-05-06T05:41:12.144Z,6.53
2019-05-06T05:43:42.502Z,6.70
2019-05-06T05:46:12.657Z,5.93
2019-05-06T05:49:02.727Z,6.17
2019-05-06T05:51:32.026Z,6.30
2019-05-06T05:54:02.186Z,5.93
2019-05-06T05:56:32.934Z,6.33
2019-05-06T05:59:03.262Z,6.27
2019-05-06T06:01:32.624Z,6.30
2019-05-06T06:04:03.162Z,6.07
2019-05-06T06:06:33.145Z,5.53
2019-05-06T06:09:03.078Z,6.53
2019-05-06T06:11:33.377Z,5.93
2019-05-06T06:14:03.599Z,5.73
2019-05-06T06:16:33.744Z,5.63
2019-05-06T06:19:12.770Z,6.10
2019-05-06T06:21:42.953Z,5.80
2019-05-06T06:24:13.196Z,5.73
2019-05-06T06:26:42.968Z,5.63
2019-05-06T06:29:12.505Z,5.60
2019-05-06T06:31:48.631Z,5.53
2019-05-06T06:34:22.318Z,5.53
2019-05-06T06:36:55.356Z,5.20
2019-05-06T06:39:27.952Z,5.27
2019-05-06T06:41:56.355Z,5.37
2019-05-06T06:44:28.935Z,5.10
2019-05-06T06:46:57.407Z,5.10
2019-05-06T06:49:25.815Z,5.10
2019-05-06T06:51:54.286Z,5.00
2019-05-06T06:54:22.926Z,5.10
2019-05-06T06:57:08.512Z,4.80
2019-05-06T06:59:43.059Z,4.63
2019-05-06T07:02:16.683Z,3.83
2019-05-06T07:05:05.261Z,3.60
2019-05-06T07:07:43.382Z,3.53
2019-05-06T07:10:06.491Z,3.77
2019-05-06T07:12:34.887Z,3.33
2019-05-06T07:15:03.669Z,3.80
2019-05-06T07:17:32.816Z,4.40
2019-05-06T07:20:08.801Z,4.23
2019-05-06T07:22:37.456Z,4.37
2019-05-06T07:25:08.498Z,4.23
2019-05-06T07:27:37.044Z,3.90
2019-05-06T07:30:07.475Z,4.10
2019-05-06T07:32:35.884Z,3.57
2019-05-06T07:35:06.301Z,4.00
2019-05-06T07:37:34.906Z,3.47
2019-05-06T07:40:04.244Z,3.80
2019-05-06T07:42:34.293Z,4.10
2019-05-06T07:45:19.246Z,3.70
2019-05-06T07:47:53.044Z,3.60
2019-05-06T07:50:22.373Z,2.70
2019-05-06T07:53:08.896Z,2.77
2019-05-06T07:55:38.031Z,2.90
2019-05-06T07:58:06.903Z,2.93
2019-05-06T08:00:36.052Z,2.40
2019-05-06T08:03:04.692Z,2.77
2019-05-06T08:05:33.163Z,2.97
2019-05-06T08:08:03.527Z,3.13
2019-05-06T08:10:33.160Z,2.60
2019-05-06T08:13:02.737Z,2.87
2019-05-06T08:15:32.612Z,2.47
2019-05-06T08:18:03.469Z,2.63
2019-05-06T08:20:37.878Z,2.50
2019-05-06T08:23:21.920Z,2.37
2019-05-06T08:25:54.329Z,2.30
2019-05-06T08:28:22.528Z,2.00
2019-05-06T08:30:53.109Z,2.30
2019-05-06T08:33:21.952Z,2.10
2019-05-06T08:35:53.152Z,2.00
2019-05-06T08:38:22.599Z,2.10
2019-05-06T08:40:52.568Z,2.13
2019-05-06T08:43:21.980Z,2.07
2019-05-06T08:45:52.639Z,1.93
2019-05-06T08:48:22.023Z,2.30
2019-05-06T08:50:54.979Z,2.17
2019-05-06T08:53:32.911Z,2.00
2019-05-06T08:56:02.954Z,2.10
2019-05-06T08:58:47.450Z,2.30
2019-05-06T09:01:18.424Z,2.20
2019-05-06T09:03:46.836Z,1.80
2019-05-06T09:06:26.947Z,2.10
2019-05-06T09:08:45.373Z,2.23
2019-05-06T09:11:13.788Z,2.00
2019-05-06T09:13:42.871Z,2.43
2019-05-06T09:16:13.007Z,2.00
2019-05-06T09:18:42.503Z,2.37
2019-05-06T09:21:12.307Z,2.50
2019-05-06T09:23:42.426Z,2.00
2019-05-06T09:26:13.139Z,2.17
2019-05-06T09:28:43.313Z,2.03
2019-05-06T09:31:28.584Z,2.53
2019-05-06T09:34:12.882Z,2.20
2019-05-06T09:36:50.499Z,2.70
2019-05-06T09:39:12.842Z,2.50
2019-05-06T09:41:47.021Z,2.40
2019-05-06T09:44:12.451Z,2.33
2019-05-06T09:46:42.614Z,2.63
2019-05-06T09:49:12.913Z,2.20
2019-05-06T09:51:42.457Z,2.30
2019-05-06T09:54:15.606Z,2.37
2019-05-06T09:56:48.619Z,2.53
2019-05-06T09:59:17.108Z,2.47
2019-05-06T10:01:45.728Z,2.50
2019-05-06T10:04:14.203Z,2.50
2019-05-06T10:06:55.679Z,2.40
2019-05-06T10:09:15.978Z,2.60
2019-05-06T10:11:43.035Z,2.37
2019-05-06T10:14:12.874Z,2.30
2019-05-06T10:16:43.070Z,2.63
2019-05-06T10:19:13.175Z,2.50
2019-05-06T10:21:42.902Z,2.50
2019-05-06T10:24:11.342Z,2.70
2019-05-06T10:26:44.080Z,2.63
2019-05-06T10:29:32.491Z,2.50
2019-05-06T10:32:02.003Z,2.37
2019-05-06T10:34:32.674Z,2.50
2019-05-06T10:37:18.010Z,2.70
2019-05-06T10:39:41.013Z,3.37
2019-05-06T10:42:13.321Z,2.67
2019-05-06T10:44:56.972Z,2.40
2019-05-06T10:47:25.391Z,2.60
2019-05-06T10:49:53.791Z,2.50
2019-05-06T10:52:39.869Z,2.70
2019-05-06T10:55:08.342Z,2.60
2019-05-06T10:57:40.361Z,2.70
2019-05-06T11:00:08.739Z,3.13
2019-05-06T11:02:56.844Z,2.87
2019-05-06T11:05:25.259Z,3.23
2019-05-06T11:07:53.664Z,3.10
2019-05-06T11:10:28.398Z,3.83
2019-05-06T11:12:52.414Z,2.97
2019-05-06T11:15:23.244Z,3.37
2019-05-06T11:17:51.050Z,2.87
2019-05-06T11:20:19.459Z,3.37
2019-05-06T11:22:47.863Z,2.90
2019-05-06T11:25:16.417Z,2.80
2019-05-06T11:27:45.417Z,2.70
2019-05-06T11:30:15.983Z,2.80
2019-05-06T11:32:48.996Z,2.63
2019-05-06T11:35:19.041Z,2.60
2019-05-06T11:37:50.851Z,2.80
2019-05-06T11:40:19.203Z,2.80
2019-05-06T11:42:47.628Z,2.70
2019-05-06T11:45:16.098Z,2.80
2019-05-06T11:47:44.509Z,2.30
2019-05-06T11:50:13.398Z,2.70
2019-05-06T11:52:43.305Z,4.10
2019-05-06T11:55:12.615Z,2.50
2019-05-06T11:57:44.615Z,2.80
2019-05-06T12:00:15.403Z,2.40
2019-05-06T12:02:48.068Z,2.70
2019-05-06T12:05:14.233Z,2.50
2019-05-06T12:07:44.901Z,2.80
2019-05-06T12:10:13.044Z,2.83
2019-05-06T12:12:42.530Z,2.73
2019-05-06T12:15:12.627Z,3.00
2019-05-06T12:17:42.191Z,2.90
2019-05-06T12:20:12.929Z,2.97
2019-05-06T12:22:42.386Z,3.57
2019-05-06T12:25:15.087Z,2.80
2019-05-06T12:27:44.211Z,2.97
2019-05-06T12:30:15.002Z,2.70
2019-05-06T12:32:45.040Z,2.90
2019-05-06T12:35:13.517Z,2.63
2019-05-06T12:37:44.062Z,2.80
2019-05-06T12:40:12.696Z,2.70
2019-05-06T12:42:43.201Z,2.60
2019-05-06T12:45:15.859Z,2.80
2019-05-06T12:47:53.349Z,2.70
2019-05-06T12:50:22.711Z,2.87
2019-05-06T12:52:52.590Z,2.70
2019-05-06T12:55:25.200Z,2.73
2019-05-06T12:57:53.288Z,2.80
2019-05-06T13:00:23.544Z,2.40
2019-05-06T13:02:53.050Z,2.40
2019-05-06T13:05:21.696Z,2.40
2019-05-06T13:07:50.161Z,3.07
2019-05-06T13:10:19.580Z,3.20
2019-05-06T13:12:49.611Z,2.90
2019-05-06T13:15:18.011Z,3.03
2019-05-06T13:17:46.420Z,3.17
2019-05-06T13:20:15.083Z,3.40
2019-05-06T13:22:45.124Z,3.93
2019-05-06T13:25:13.882Z,3.00
2019-05-06T13:27:42.985Z,2.67
2019-05-06T13:30:12.923Z,2.73
2019-05-06T13:32:43.083Z,4.80
2019-05-06T13:35:12.294Z,3.00
2019-05-06T13:37:42.299Z,2.73
2019-05-06T13:40:11.097Z,3.17
2019-05-06T13:42:42.524Z,3.07
2019-05-06T13:45:12.124Z,3.97
2019-05-06T13:47:45.047Z,3.20
2019-05-06T13:50:22.990Z,3.30
2019-05-06T13:53:07.737Z,3.80
2019-05-06T13:55:23.295Z,2.83
2019-05-06T13:57:52.337Z,4.27
2019-05-06T14:00:22.484Z,3.87
2019-05-06T14:02:53.282Z,3.80
2019-05-06T14:05:21.939Z,3.33
2019-05-06T14:07:52.737Z,3.40
2019-05-06T14:10:22.246Z,3.63
2019-05-06T14:12:52.964Z,3.13
2019-05-06T14:15:23.139Z,3.13
2019-05-06T14:17:53.154Z,3.27
2019-05-06T14:20:22.108Z,3.50
2019-05-06T14:22:52.720Z,3.60
2019-05-06T14:25:23.335Z,10.73
2019-05-06T14:27:53.447Z,6.23
2019-05-06T14:30:42.932Z,3.37
2019-05-06T14:33:15.523Z,3.27
2019-05-06T14:35:43.318Z,2.97
2019-05-06T14:38:13.629Z,3.40
2019-05-06T14:41:07.156Z,3.50
2019-05-06T14:43:32.175Z,3.00
2019-05-06T14:46:00.063Z,3.07
2019-05-06T14:48:28.480Z,3.17
2019-05-06T14:50:57.468Z,3.00
2019-05-06T14:53:25.944Z,3.13
2019-05-06T14:55:55.981Z,3.20
2019-05-06T14:58:24.399Z,4.60
2019-05-06T15:00:53.332Z,3.50
2019-05-06T15:03:22.221Z,3.20
2019-05-06T15:05:50.677Z,3.30
2019-05-06T15:08:19.085Z,2.87
2019-05-06T15:10:49.386Z,3.20
2019-05-06T15:13:17.697Z,3.20
2019-05-06T15:15:46.103Z,2.83
2019-05-06T15:18:14.511Z,3.10
2019-05-06T15:20:42.907Z,3.40
2019-05-06T15:23:13.053Z,3.40
2019-05-06T15:25:41.611Z,3.20
2019-05-06T15:28:10.007Z,2.90
2019-05-06T15:30:48.918Z,3.10
2019-05-06T15:33:18.967Z,3.60
2019-05-06T15:36:02.425Z,4.40
2019-05-06T15:38:31.623Z,4.47
2019-05-06T15:41:00.039Z,4.90
2019-05-06T15:43:28.447Z,4.87
2019-05-06T15:45:56.847Z,5.00
2019-05-06T15:48:25.260Z,5.23
2019-05-06T15:50:53.664Z,4.60
2019-05-06T15:53:22.523Z,4.50
2019-05-06T15:55:53.274Z,4.40
2019-05-06T15:58:22.897Z,4.20
2019-05-06T16:00:53.197Z,4.67
2019-05-06T16:03:22.716Z,4.00
2019-05-06T16:05:54.620Z,4.60
2019-05-06T16:08:24.272Z,4.17
2019-05-06T16:10:55.717Z,4.57
2019-05-06T16:13:22.287Z,4.20
2019-05-06T16:15:53.051Z,4.03
2019-05-06T16:18:23.221Z,3.83
2019-05-06T16:20:51.112Z,3.90
2019-05-06T16:23:26.910Z,3.80
2019-05-06T16:25:55.308Z,3.60
2019-05-06T16:28:23.715Z,3.57
2019-05-06T16:30:53.474Z,3.50
2019-05-06T16:33:22.250Z,3.63
2019-05-06T16:35:52.216Z,3.23
2019-05-06T16:38:22.791Z,3.57
2019-05-06T16:40:54.625Z,3.87
2019-05-06T16:43:22.141Z,3.20
2019-05-06T16:45:52.959Z,3.37
2019-05-06T16:48:22.550Z,3.37
2019-05-06T16:50:51.095Z,3.17
2019-05-06T16:53:19.667Z,3.30
2019-05-06T16:55:55.380Z,2.90
2019-05-06T16:58:32.399Z,3.07
2019-05-06T17:01:03.131Z,3.00
2019-05-06T17:03:33.165Z,3.13
2019-05-06T17:06:18.424Z,3.00
2019-05-06T17:08:46.909Z,3.20
2019-05-06T17:11:26.947Z,3.13
2019-05-06T17:13:45.576Z,3.30
2019-05-06T17:16:14.011Z,3.40
2019-05-06T17:18:42.551Z,3.60
2019-05-06T17:21:12.966Z,3.67
2019-05-06T17:23:42.332Z,3.90
2019-05-06T17:26:12.708Z,4.20
2019-05-06T17:28:42.633Z,4.27
2019-05-06T17:31:15.327Z,4.30
2019-05-06T17:33:45.379Z,3.80
2019-05-06T17:36:18.385Z,4.30
2019-05-06T17:38:48.363Z,4.30
2019-05-06T17:41:16.860Z,4.70
2019-05-06T17:43:45.260Z,4.83
2019-05-06T17:46:15.384Z,4.47
2019-05-06T17:48:45.417Z,4.97
2019-05-06T17:51:15.595Z,4.60
2019-05-06T17:53:45.703Z,4.87
2019-05-06T17:56:14.196Z,5.37
2019-05-06T17:58:42.655Z,5.50
2019-05-06T18:01:12.701Z,5.80
2019-05-06T18:03:41.176Z,5.60
2019-05-06T18:06:13.953Z,5.73
2019-05-06T18:08:39.815Z,5.70
2019-05-06T18:11:08.219Z,5.77
2019-05-06T18:13:36.634Z,5.90
2019-05-06T18:16:05.173Z,5.83
2019-05-06T18:18:33.588Z,5.67
2019-05-06T18:21:02.550Z,6.03
2019-05-06T18:23:33.422Z,6.03
2019-05-06T18:26:03.166Z,6.00
2019-05-06T18:28:32.357Z,6.27
2019-05-06T18:31:03.090Z,6.00
2019-05-06T18:33:32.593Z,6.10
2019-05-06T18:36:02.596Z,6.27
2019-05-06T18:38:33.520Z,6.47
2019-05-06T18:41:02.069Z,6.27
2019-05-06T18:43:32.666Z,5.97
2019-05-06T18:46:02.742Z,6.70
2019-05-06T18:48:32.526Z,6.20
2019-05-06T18:51:03.081Z,6.37
2019-05-06T18:53:33.165Z,6.47
2019-05-06T18:56:03.035Z,6.10
2019-05-06T18:58:32.096Z,6.83
2019-05-06T19:01:00.535Z,6.70
2019-05-06T19:03:31.974Z,6.70
2019-05-06T19:06:02.364Z,6.63
2019-05-06T19:08:44.992Z,7.07
2019-05-06T19:11:15.151Z,6.87
2019-05-06T19:13:43.661Z,6.73
2019-05-06T19:16:12.795Z,6.83
2019-05-06T19:18:42.654Z,7.17
2019-05-06T19:21:13.302Z,6.80
2019-05-06T19:23:42.754Z,6.60
2019-05-06T19:26:12.363Z,6.70
2019-05-06T19:28:42.875Z,7.10
2019-05-06T19:31:12.357Z,7.20
2019-05-06T19:33:42.957Z,7.10
2019-05-06T19:36:12.586Z,7.50
2019-05-06T19:38:42.379Z,6.70
2019-05-06T19:41:12.690Z,7.53
2019-05-06T19:43:41.084Z,7.93
2019-05-06T19:46:09.496Z,7.00
2019-05-06T19:48:37.888Z,7.90
2019-05-06T19:51:06.303Z,7.20
2019-05-06T19:53:34.704Z,7.80
2019-05-06T19:56:03.112Z,7.33
2019-05-06T19:58:31.726Z,7.50
2019-05-06T20:01:02.370Z,7.87
2019-05-06T20:03:32.687Z,7.20
2019-05-06T20:06:05.239Z,7.03
2019-05-06T20:08:35.289Z,6.90
2019-05-06T20:11:22.490Z,6.63
2019-05-06T20:13:52.461Z,7.00
2019-05-06T20:16:22.892Z,6.93
2019-05-06T20:18:52.676Z,7.33
2019-05-06T20:21:22.997Z,7.27
2019-05-06T20:23:52.628Z,7.33
2019-05-06T20:26:22.000Z,6.87
2019-05-06T20:28:52.573Z,7.40
2019-05-06T20:31:22.602Z,7.10
2019-05-06T20:33:52.800Z,7.23
2019-05-06T20:36:22.578Z,6.97
2019-05-06T20:38:51.139Z,6.53
2019-05-06T20:41:19.545Z,6.47
2019-05-06T20:43:47.952Z,6.77
2019-05-06T20:46:16.354Z,6.30
2019-05-06T20:48:44.768Z,6.27
2019-05-06T20:51:13.169Z,6.40
2019-05-06T20:53:43.161Z,6.80
2019-05-06T20:56:12.400Z,6.57
2019-05-06T20:58:42.027Z,5.97
2019-05-06T21:01:10.528Z,6.13
2019-05-06T21:03:38.929Z,6.07
2019-05-06T21:06:07.324Z,6.43
2019-05-06T21:08:35.728Z,5.63
2019-05-06T21:11:04.264Z,5.87
2019-05-06T21:13:35.426Z,6.10
2019-05-06T21:16:02.887Z,7.07
2019-05-06T21:18:32.452Z,11.87
2019-05-06T21:21:02.135Z,10.63
2019-05-06T21:23:32.117Z,13.23
2019-05-06T21:26:02.582Z,8.77
2019-05-06T21:28:30.762Z,14.87
2019-05-06T21:30:59.179Z,17.67
2019-05-06T21:33:27.583Z,12.90
2019-05-06T21:35:56.004Z,10.53
2019-05-06T21:38:24.403Z,12.57
2019-05-06T21:40:52.819Z,28.47
2019-05-06T21:43:22.733Z,9.50
2019-05-06T21:45:51.286Z,6.47
2019-05-06T21:48:22.084Z,15.33
2019-05-06T21:50:52.043Z,8.57
2019-05-06T21:53:19.939Z,7.50
2019-05-06T21:55:48.343Z,8.47
2019-05-06T21:58:16.763Z,10.90
2019-05-06T22:00:46.954Z,9.77
2019-05-06T22:03:15.643Z,17.80
2019-05-06T22:05:44.047Z,8.60
2019-05-06T22:08:12.984Z,7.97
2019-05-06T22:10:42.178Z,8.60
2019-05-06T22:13:12.550Z,5.43
2019-05-06T22:15:42.108Z,6.60
2019-05-06T22:18:12.519Z,8.67
2019-05-06T22:20:58.779Z,7.90
2019-05-06T22:23:28.834Z,7.77
2019-05-06T22:26:08.463Z,7.23
2019-05-06T22:28:27.367Z,7.20
2019-05-06T22:30:55.777Z,8.53
2019-05-06T22:33:24.178Z,8.63
2019-05-06T22:35:54.923Z,7.27
2019-05-06T22:38:22.707Z,5.50
2019-05-06T22:40:52.975Z,5.53
2019-05-06T22:43:21.892Z,4.73
2019-05-06T22:45:50.431Z,6.03
2019-05-06T22:48:18.835Z,5.23
2019-05-06T22:50:47.249Z,6.27
2019-05-06T22:53:15.663Z,7.17
2019-05-06T22:55:44.071Z,5.90
2019-05-06T22:58:12.483Z,6.00
2019-05-06T23:00:42.622Z,5.23
2019-05-06T23:03:15.048Z,10.00
2019-05-06T23:05:43.452Z,8.23
2019-05-06T23:08:12.360Z,6.63
2019-05-06T23:10:42.281Z,8.73
2019-05-06T23:13:12.438Z,5.40
2019-05-06T23:15:42.039Z,6.27
2019-05-06T23:18:10.998Z,5.40
2019-05-06T23:20:39.398Z,5.70
2019-05-06T23:23:07.807Z,5.13
2019-05-06T23:25:36.279Z,5.20
2019-05-06T23:28:04.842Z,4.70
2019-05-06T23:30:33.554Z,5.73
2019-05-06T23:33:02.059Z,5.60
2019-05-06T23:35:30.475Z,5.43
2019-05-06T23:38:34.664Z,5.27
2019-05-06T23:41:38.970Z,5.20
2019-05-06T23:44:46.157Z,5.03
2019-05-06T23:47:49.720Z,5.27
2019-05-06T23:50:53.939Z,5.00
2019-05-06T23:53:58.071Z,5.20
2019-05-06T23:56:46.527Z,4.77
2019-05-06T23:59:17.140Z,4.57
